Bourbon Pearl — LCTD — position and weather

sailwx.info

Track history (hours):
 
Tides and Currents Weather Stations Pressure Air Temp Water Temp Dewpoint Dewpoint Depression Visibility Wind Speed Wind Dir Waves Ship Positions

Bourbon Pearl

Last reported at 2014-Aug-31 20:33 UTC. Time now 2014-Sep-03 00:10 UTC.
Position N 32°06' E 030°44'.

Length 91 m; draft 5.6 m.

Type: Other ship. MMSI: 258176000.

Date/timePositionNaut miles runAvg speedWind from/ knotsBaromVisibWave heightAir tempDewpointWater temp
2014-Aug-31 20:33N 32°06' E 030°44'0 0.0
2014-Aug-31 19:33N 32°06' E 030°44'0 0.0
2014-Aug-31 17:33N 32°06' E 030°44'3 1.6
2014-Aug-31 15:31N 32°08' E 030°47'3 2.5
2014-Aug-31 14:31N 32°10' E 030°50'9 0.6
2014-Aug-31 00:32N 32°06' E 030°59'0 0.0
2014-Aug-30 23:28N 32°06' E 030°59'0 0.0
2014-Aug-30 22:28N 32°06' E 030°59'0 0.1
2014-Aug-30 21:27N 32°06' E 030°59'13 2.1
2014-Aug-30 15:20N 32°06' E 030°44'0 0.0
2014-Aug-30 14:10N 32°06' E 030°44'0 0.0
2014-Aug-29 22:11N 32°06' E 030°44'7 0.3
2014-Aug-28 18:33N 32°12' E 030°49'2 0.0
2014-Aug-26 16:33N 32°10' E 030°50'0 0.0
2014-Aug-26 15:33N 32°10' E 030°50'0 0.0
2014-Aug-26 14:22N 32°10' E 030°50'0 0.0
2014-Aug-26 13:33N 32°10' E 030°50'0 0.0
2014-Aug-26 10:33N 32°10' E 030°50'0 0.0
2014-Aug-26 09:28N 32°10' E 030°50'0 0.0
2014-Aug-26 08:33N 32°10' E 030°50'0 0.0
2014-Aug-26 07:29N 32°10' E 030°50'0 0.0
2014-Aug-26 06:33N 32°10' E 030°50'0 0.0
2014-Aug-26 05:33N 32°10' E 030°50'0 0.0
2014-Aug-26 04:33N 32°10' E 030°50'0 0.0
2014-Aug-26 03:31N 32°10' E 030°50'0 0.0
2014-Aug-26 02:10N 32°10' E 030°50'0 0.0
2014-Aug-26 01:33N 32°10' E 030°50'0 0.0
2014-Aug-26 00:21N 32°10' E 030°50'0 0.0
2014-Aug-25 22:33N 32°10' E 030°50'0 0.1
2014-Aug-25 21:32N 32°10' E 030°50'2 1.6
2014-Aug-25 20:33N 32°09' E 030°48'1010.1
2014-Aug-25 19:33N 32°05' E 030°37'1 1.1
2014-Aug-25 18:33N 32°04' E 030°36'1 0.9
2014-Aug-25 17:17N 32°04' E 030°37'0 0.5
2014-Aug-25 16:33N 32°04' E 030°38'0 0.1
2014-Aug-25 15:33N 32°04' E 030°38'0 0.0
2014-Aug-25 14:33N 32°04' E 030°38'0 0.0
2014-Aug-25 13:16N 32°04' E 030°38'0 0.0
2014-Aug-25 12:33N 32°04' E 030°38'1 0.5
2014-Aug-25 11:11N 32°05' E 030°38'1 0.2
2014-Aug-25 07:32N 32°06' E 030°38'0 0.0
2014-Aug-25 05:33N 32°06' E 030°38'0 0.0
2014-Aug-25 03:28N 32°06' E 030°38'0 0.0
2014-Aug-25 00:05N 32°06' E 030°38'0 0.3
2014-Aug-24 23:33N 32°06' E 030°38'0 0.2
2014-Aug-24 22:30N 32°06' E 030°38'5 5.3
2014-Aug-24 21:33N 32°07' E 030°44'6 5.1
2014-Aug-24 20:29N 32°10' E 030°50'0 0.2
2014-Aug-24 19:28N 32°10' E 030°50'0 0.0
2014-Aug-24 18:07N 32°10' E 030°50'0 0.0
2014-Aug-24 17:33N 32°10' E 030°50'0 0.1
2014-Aug-24 16:33N 32°10' E 030°50'0 0.0
2014-Aug-24 15:33N 32°10' E 030°50'0 0.0
2014-Aug-24 14:33N 32°10' E 030°50'0 0.0
2014-Aug-24 13:29N 32°10' E 030°50'0 0.0
2014-Aug-24 12:33N 32°10' E 030°50'0 0.0
2014-Aug-24 11:10N 32°10' E 030°50'0 0.0
2014-Aug-24 06:22N 32°10' E 030°50'0 0.0
2014-Aug-24 01:33N 32°10' E 030°50'0 0.0
2014-Aug-24 00:33N 32°10' E 030°50'0 0.0
2014-Aug-23 21:04N 32°10' E 030°50'0 0.0
2014-Aug-23 20:32N 32°10' E 030°50'0 0.0
2014-Aug-23 19:33N 32°10' E 030°50'4 0.2
2014-Aug-23 02:14N 32°07' E 030°46'0 0.0
2014-Aug-23 00:15N 32°07' E 030°46'2 0.2
2014-Aug-22 14:31N 32°06' E 030°44'0 0.1
2014-Aug-22 13:14N 32°06' E 030°44'1 1.1
2014-Aug-22 12:27N 32°07' E 030°45'5 4.9
2014-Aug-22 11:26N 32°10' E 030°50'0 0.1
2014-Aug-22 10:33N 32°10' E 030°50'0 0.0
2014-Aug-22 09:33N 32°10' E 030°50'0 0.1
2014-Aug-22 08:33N 32°10' E 030°50'2 1.8
2014-Aug-22 07:33N 32°08' E 030°48'2 2.4
2014-Aug-22 06:32N 32°06' E 030°47'0 0.1
2014-Aug-22 05:18N 32°06' E 030°46'0 0.0
2014-Aug-22 00:23N 32°07' E 030°46'0 0.3
2014-Aug-21 23:30N 32°07' E 030°46'0 0.1
2014-Aug-21 22:31N 32°07' E 030°46'0 0.0
2014-Aug-21 21:31N 32°07' E 030°46'  
Track history (hours):
 
Tides and Currents Weather Stations Pressure Air Temp Water Temp Dewpoint Dewpoint Depression Visibility Wind Speed Wind Dir Waves Ship Positions

Bourbon Pearl

Last reported at 2014-Aug-31 20:33 UTC. Time now 2014-Sep-03 00:10 UTC.
Position N 32°06' E 030°44'.

Length 91 m; draft 5.6 m.

Type: Other ship. MMSI: 258176000.

Date/timePositionNaut miles runAvg speedWind from/ knotsBaromVisibWave heightAir tempDewpointWater temp
2014-Aug-31 20:33N 32°06' E 030°44'0 0.0
2014-Aug-31 19:33N 32°06' E 030°44'0 0.0
2014-Aug-31 17:33N 32°06' E 030°44'3 1.6
2014-Aug-31 15:31N 32°08' E 030°47'3 2.5
2014-Aug-31 14:31N 32°10' E 030°50'9 0.6
2014-Aug-31 00:32N 32°06' E 030°59'0 0.0
2014-Aug-30 23:28N 32°06' E 030°59'0 0.0
2014-Aug-30 22:28N 32°06' E 030°59'0 0.1
2014-Aug-30 21:27N 32°06' E 030°59'13 2.1
2014-Aug-30 15:20N 32°06' E 030°44'0 0.0
2014-Aug-30 14:10N 32°06' E 030°44'0 0.0
2014-Aug-29 22:11N 32°06' E 030°44'7 0.3
2014-Aug-28 18:33N 32°12' E 030°49'2 0.0
2014-Aug-26 16:33N 32°10' E 030°50'0 0.0
2014-Aug-26 15:33N 32°10' E 030°50'0 0.0
2014-Aug-26 14:22N 32°10' E 030°50'0 0.0
2014-Aug-26 13:33N 32°10' E 030°50'0 0.0
2014-Aug-26 10:33N 32°10' E 030°50'0 0.0
2014-Aug-26 09:28N 32°10' E 030°50'0 0.0
2014-Aug-26 08:33N 32°10' E 030°50'0 0.0
2014-Aug-26 07:29N 32°10' E 030°50'0 0.0
2014-Aug-26 06:33N 32°10' E 030°50'0 0.0
2014-Aug-26 05:33N 32°10' E 030°50'0 0.0
2014-Aug-26 04:33N 32°10' E 030°50'0 0.0
2014-Aug-26 03:31N 32°10' E 030°50'0 0.0
2014-Aug-26 02:10N 32°10' E 030°50'0 0.0
2014-Aug-26 01:33N 32°10' E 030°50'0 0.0
2014-Aug-26 00:21N 32°10' E 030°50'0 0.0
2014-Aug-25 22:33N 32°10' E 030°50'0 0.1
2014-Aug-25 21:32N 32°10' E 030°50'2 1.6
2014-Aug-25 20:33N 32°09' E 030°48'1010.1
2014-Aug-25 19:33N 32°05' E 030°37'1 1.1
2014-Aug-25 18:33N 32°04' E 030°36'1 0.9
2014-Aug-25 17:17N 32°04' E 030°37'0 0.5
2014-Aug-25 16:33N 32°04' E 030°38'0 0.1
2014-Aug-25 15:33N 32°04' E 030°38'0 0.0
2014-Aug-25 14:33N 32°04' E 030°38'0 0.0
2014-Aug-25 13:16N 32°04' E 030°38'0 0.0
2014-Aug-25 12:33N 32°04' E 030°38'1 0.5
2014-Aug-25 11:11N 32°05' E 030°38'1 0.2
2014-Aug-25 07:32N 32°06' E 030°38'0 0.0
2014-Aug-25 05:33N 32°06' E 030°38'0 0.0
2014-Aug-25 03:28N 32°06' E 030°38'0 0.0
2014-Aug-25 00:05N 32°06' E 030°38'0 0.3
2014-Aug-24 23:33N 32°06' E 030°38'0 0.2
2014-Aug-24 22:30N 32°06' E 030°38'5 5.3
2014-Aug-24 21:33N 32°07' E 030°44'6 5.1
2014-Aug-24 20:29N 32°10' E 030°50'0 0.2
2014-Aug-24 19:28N 32°10' E 030°50'0 0.0
2014-Aug-24 18:07N 32°10' E 030°50'0 0.0
2014-Aug-24 17:33N 32°10' E 030°50'0 0.1
2014-Aug-24 16:33N 32°10' E 030°50'0 0.0
2014-Aug-24 15:33N 32°10' E 030°50'0 0.0
2014-Aug-24 14:33N 32°10' E 030°50'0 0.0
2014-Aug-24 13:29N 32°10' E 030°50'0 0.0
2014-Aug-24 12:33N 32°10' E 030°50'0 0.0
2014-Aug-24 11:10N 32°10' E 030°50'0 0.0
2014-Aug-24 06:22N 32°10' E 030°50'0 0.0
2014-Aug-24 01:33N 32°10' E 030°50'0 0.0
2014-Aug-24 00:33N 32°10' E 030°50'0 0.0
2014-Aug-23 21:04N 32°10' E 030°50'0 0.0
2014-Aug-23 20:32N 32°10' E 030°50'0 0.0
2014-Aug-23 19:33N 32°10' E 030°50'4 0.2
2014-Aug-23 02:14N 32°07' E 030°46'0 0.0
2014-Aug-23 00:15N 32°07' E 030°46'2 0.2
2014-Aug-22 14:31N 32°06' E 030°44'0 0.1
2014-Aug-22 13:14N 32°06' E 030°44'1 1.1
2014-Aug-22 12:27N 32°07' E 030°45'5 4.9
2014-Aug-22 11:26N 32°10' E 030°50'0 0.1
2014-Aug-22 10:33N 32°10' E 030°50'0 0.0
2014-Aug-22 09:33N 32°10' E 030°50'0 0.1
2014-Aug-22 08:33N 32°10' E 030°50'2 1.8
2014-Aug-22 07:33N 32°08' E 030°48'2 2.4
2014-Aug-22 06:32N 32°06' E 030°47'0 0.1
2014-Aug-22 05:18N 32°06' E 030°46'0 0.0
2014-Aug-22 00:23N 32°07' E 030°46'0 0.3
2014-Aug-21 23:30N 32°07' E 030°46'0 0.1
2014-Aug-21 22:31N 32°07' E 030°46'0 0.0
2014-Aug-21 21:31N 32°07' E 030°46'  

Dump ship's entire track history